Jeffersontown, Kentucky
Current Conditions -  °F | °C
As of 12:53 AM on Friday 31 Oct 2014 (Local Time) from KLOU Reporting Station
Overcast Overcast  
Wind Chill: 49°   Ceiling: 6500
Heat Index: 49°   Visibility: 10mi
Dew Point: 38°   Wind: 0mph
Humidity: 66%   Direction: NA
Pressure: 30.05"   Gusts: NA
Location:  38.19°N, 85.57°W
Report Text: KLOU 310453Z AUTO 00000KT 10SM OVC065 09/03 A3005 RMK AO2 SLP177 T00940033 401390022
Loading
Personal Weather Stations






























Interactive Weather Map
Tropical Storm Tracking
New forecast layout! Learn more

10-Day Weather Forecast

Advertisements
Track Severe Weather on mobile